»·PEaware :: UAL2712 KAMA-KEGE

UAL2712 :: KAMA-KEGE

FLIGHT INFORMATION

Flight Status: Arrived
Operator:
United Airlines
More flights by this operator :: More flights under this callsign
Pilot: Alex S. (7186)
Aircraft: BOEING 737-900
(B739)
More flights by this aircraft type
Origin: KAMA Amarillo Intl
United States
Destination: KEGE Eagle Co Regl
United States
More flights between these airports :: More routes between these airports
Route: +PNH J17 FQF RLG
File this flight plan on PilotEdge
Remarks: PBN / A1B1C1D1S1S2 DOF / 170710 REG / N922SB OPR / UAL RMK / TCAS SIMBRIEF
Altitude:
(Current/Filed)
34,000ft
Speed:
(Current/Filed)
471kts
Departed: 10-Jul-17 10:56 AM
Arrived: 10-Jul-17 12:04 PM
Distance/Time
Traveled:
363nm/1:08
Distance/Time
To Go:
Arrived

Flight Plot

Page will automatically refresh every two minutes.

Flight plan parsing failed; only flown route is shown


Map Options




Map Legend


Flown Route
Filed Route
Departure Airport
Arrival Airport
Navaid (VOR, NDB)
Fix

Horizontal Profiles

Position Reports

Time Latitude Longitude Heading Altitude Ground
Speed
10-Jul-17 10:30 35.217486 -101.709983 135 3614ft 0kts
10-Jul-17 10:31 35.217486 -101.709983 135 3614ft 0kts
10-Jul-17 10:32 35.217486 -101.709983 135 3614ft 0kts
10-Jul-17 10:33 35.217486 -101.709983 135 3615ft 0kts
10-Jul-17 10:34 35.217486 -101.709983 135 3614ft 0kts
10-Jul-17 10:35 35.217486 -101.709983 135 3614ft 0kts
10-Jul-17 10:36 35.217486 -101.709983 135 3614ft 0kts
10-Jul-17 10:37 35.217486 -101.709983 135 3614ft 0kts
10-Jul-17 10:38 35.217486 -101.709983 135 3614ft 0kts
10-Jul-17 10:39 35.217486 -101.709983 135 3614ft 0kts
10-Jul-17 10:40 35.217486 -101.709983 135 3614ft 0kts
10-Jul-17 10:41 35.217486 -101.709983 135 3614ft 0kts
10-Jul-17 10:42 35.217486 -101.709983 135 3614ft 0kts
10-Jul-17 10:43 35.217486 -101.709983 135 3614ft 0kts
10-Jul-17 10:44 35.217486 -101.709983 135 3614ft 0kts
10-Jul-17 10:45 35.217486 -101.709983 135 3614ft 0kts
10-Jul-17 10:46 35.217486 -101.709983 135 3614ft 0kts
10-Jul-17 10:47 35.217486 -101.709983 135 3614ft 0kts
10-Jul-17 10:48 35.217486 -101.709983 135 3614ft 0kts
10-Jul-17 10:49 35.217486 -101.709983 135 3614ft 0kts
10-Jul-17 10:50 35.217486 -101.709983 135 3614ft 0kts
10-Jul-17 10:51 35.217554 -101.710064 135 3614ft 0kts
10-Jul-17 10:52 35.217554 -101.710064 135 3614ft 0kts
10-Jul-17 10:53 35.217554 -101.710064 135 3614ft 0kts
10-Jul-17 10:54 35.218805 -101.710296 330 3614ft 6kts
10-Jul-17 10:55 35.221172 -101.708743 46 3614ft 15kts
10-Jul-17 10:56 35.224704 -101.704213 45 3614ft 18kts
10-Jul-17 10:57 35.227545 -101.700582 46 3614ft 14kts
10-Jul-17 10:58 35.230031 -101.699635 318 3614ft 0kts
10-Jul-17 10:59 35.227191 -101.704877 226 3615ft 77kts
10-Jul-17 11:00 35.199766 -101.739585 225 4792ft 163kts
10-Jul-17 11:01 35.163161 -101.785867 225 6117ft 220kts
10-Jul-17 11:02 35.113171 -101.848600 225 7795ft 278kts
10-Jul-17 11:03 35.057852 -101.917796 225 10603ft 294kts
10-Jul-17 11:04 34.994498 -101.995667 225 12005ft 360kts
10-Jul-17 11:05 34.918087 -102.089868 225 13278ft 408kts
10-Jul-17 11:06 34.879598 -102.217258 266 15275ft 426kts
10-Jul-17 11:07 34.911678 -102.352310 316 16992ft 438kts
10-Jul-17 11:08 35.023857 -102.410994 342 18571ft 447kts
10-Jul-17 11:09 35.143321 -102.458160 342 19999ft 456kts
10-Jul-17 11:10 35.265635 -102.506609 342 21225ft 465kts
10-Jul-17 11:11 35.389692 -102.555517 342 22324ft 473kts
10-Jul-17 11:12 35.515612 -102.605463 342 23292ft 479kts
10-Jul-17 11:13 35.643558 -102.656368 342 24152ft 485kts
10-Jul-17 11:14 35.772431 -102.707824 342 24977ft 490kts
10-Jul-17 11:15 35.902460 -102.759912 342 25677ft 494kts
10-Jul-17 11:16 36.033976 -102.812741 341 26196ft 497kts
10-Jul-17 11:17 36.164879 -102.865597 341 26865ft 494kts
10-Jul-17 11:18 36.295286 -102.918429 342 27552ft 493kts
10-Jul-17 11:19 36.425369 -102.971267 342 28302ft 490kts
10-Jul-17 11:20 36.554413 -103.023690 342 29081ft 486kts
10-Jul-17 11:21 36.682547 -103.076189 341 29829ft 484kts
10-Jul-17 11:22 36.800006 -103.156827 323 30563ft 482kts
10-Jul-17 11:23 36.905749 -103.258959 323 31299ft 479kts
10-Jul-17 11:24 37.010927 -103.360485 323 31989ft 477kts
10-Jul-17 11:25 37.116172 -103.461732 323 32154ft 475kts
10-Jul-17 11:26 37.220583 -103.562992 323 32165ft 475kts
10-Jul-17 11:27 37.328782 -103.657056 329 32155ft 473kts
10-Jul-17 11:28 37.440959 -103.744640 328 32138ft 473kts
10-Jul-17 11:29 37.552220 -103.832791 329 32126ft 473kts
10-Jul-17 11:30 37.663884 -103.921243 328 32132ft 473kts
10-Jul-17 11:31 37.774793 -104.009823 328 32116ft 472kts
10-Jul-17 11:32 37.885613 -104.098812 328 32112ft 472kts
10-Jul-17 11:33 37.996777 -104.188305 328 32106ft 472kts
10-Jul-17 11:34 38.107492 -104.277467 328 32096ft 472kts
10-Jul-17 11:35 38.218078 -104.367354 328 32118ft 472kts
10-Jul-17 11:36 38.337125 -104.434121 349 32104ft 470kts
10-Jul-17 11:37 38.467037 -104.453151 354 32120ft 470kts
10-Jul-17 11:38 38.597076 -104.470526 353 32158ft 470kts
10-Jul-17 11:39 38.727624 -104.488088 353 32197ft 471kts
10-Jul-17 11:40 38.857704 -104.505800 353 32230ft 471kts
10-Jul-17 11:41 38.987746 -104.523627 353 32276ft 470kts
10-Jul-17 11:42 39.118231 -104.541578 352 32284ft 470kts
10-Jul-17 11:43 39.248225 -104.559464 352 32284ft 470kts
10-Jul-17 11:44 39.378254 -104.577457 352 32264ft 471kts
10-Jul-17 11:45 39.508648 -104.595551 352 32231ft 470kts
10-Jul-17 11:46 39.636558 -104.623743 329 32171ft 467kts
10-Jul-17 11:47 39.705925 -104.761935 292 32181ft 467kts
10-Jul-17 11:48 39.743369 -104.923865 283 32172ft 468kts
10-Jul-17 11:49 39.772672 -105.088300 284 32195ft 467kts
10-Jul-17 11:50 39.801943 -105.252775 282 32188ft 467kts
10-Jul-17 11:51 39.830574 -105.417545 282 32303ft 466kts
10-Jul-17 11:52 39.858664 -105.580359 282 31336ft 463kts
10-Jul-17 11:53 39.886623 -105.744800 281 30334ft 469kts
10-Jul-17 11:54 39.914836 -105.911916 281 26239ft 475kts
10-Jul-17 11:55 39.942506 -106.076240 280 22997ft 454kts
10-Jul-17 11:57 39.990627 -106.368737 279 16888ft 425kts
10-Jul-17 11:58 39.941395 -106.487043 195 14604ft 389kts
10-Jul-17 11:59 39.845231 -106.506613 202 14419ft 319kts
10-Jul-17 12:00 39.769506 -106.540650 198 13783ft 269kts
10-Jul-17 12:01 39.703352 -106.574943 228 13079ft 254kts
10-Jul-17 12:02 39.678278 -106.660446 259 11868ft 253kts
10-Jul-17 12:03 39.666072 -106.745702 259 10627ft 217kts
10-Jul-17 12:04 39.655970 -106.816181 259 9041ft 182kts
10-Jul-17 12:05 39.647059 -106.875728 261 7091ft 155kts
10-Jul-17 12:06 39.641737 -106.924614 261 6523ft 68kts
10-Jul-17 12:07 39.640588 -106.931487 180 6523ft 10kts
10-Jul-17 12:08 39.640259 -106.928478 82 6523ft 16kts
10-Jul-17 12:09 39.640723 -106.924371 80 6523ft 13kts
10-Jul-17 12:10 39.641406 -106.917991 82 6523ft 17kts
10-Jul-17 12:11 39.641177 -106.914936 82 6523ft 5kts
10-Jul-17 12:12 39.640780 -106.913825 171 6523ft 0kts

Navigation Log

Ident Type
Flight plan parsing failed, navigation log unavailable